Time;durP1;ratioP1;P1;durP2;ratioP2;P2;SDS_P1;SDS_P2;PMS_P1;PMS_P2;Temp;Humidity;BMP_temperature;BMP_pressure;BME280_temperature;BME280_humidity;BME280_pressure;Samples;Min_cycle;Max_cycle;Signal;HPM_P1;HPM_P2
2023/03/09 00:01:31;;;;;;;14.60;7.57;;;1.70;98.50;;;;;;4935254;29;20048;-87
2023/03/09 00:04:00;;;;;;;14.63;7.30;;;1.70;98.50;;;;;;4935504;29;20055;-85
2023/03/09 00:06:27;;;;;;;14.73;8.03;;;1.70;98.50;;;;;;4936385;28;20484;-85
2023/03/09 00:08:54;;;;;;;13.47;6.80;;;1.70;98.50;;;;;;4932648;28;20065;-85
2023/03/09 00:11:21;;;;;;;17.20;8.77;;;1.70;98.60;;;;;;4923309;29;20563;-88
2023/03/09 00:13:49;;;;;;;14.73;7.33;;;1.70;98.60;;;;;;4944810;28;20461;-87
2023/03/09 00:16:22;;;;;;;14.80;6.97;;;1.70;98.60;;;;;;4921949;29;20052;-86
2023/03/09 00:18:52;;;;;;;15.75;7.85;;;1.60;98.50;;;;;;4956206;28;20052;-84
2023/03/09 00:21:34;;;;;;;16.33;8.80;;;1.60;98.50;;;;;;4951776;29;20118;-88
2023/03/09 00:24:09;;;;;;;15.73;7.55;;;1.60;98.60;;;;;;4961398;28;20044;-85
2023/03/09 00:26:39;;;;;;;15.07;7.77;;;1.60;98.60;;;;;;4970924;28;20095;-87
2023/03/09 00:29:11;;;;;;;16.13;8.77;;;1.60;98.60;;;;;;4953967;29;20394;-80
2023/03/09 00:31:39;;;;;;;17.40;8.35;;;1.60;98.60;;;;;;4945612;29;20054;-84
2023/03/09 00:34:07;;;;;;;17.57;9.43;;;1.60;98.60;;;;;;4944467;29;20513;-86
2023/03/09 00:36:38;;;;;;;16.17;8.63;;;1.60;98.60;;;;;;4938753;29;20130;-84
2023/03/09 00:39:05;;;;;;;16.47;7.90;;;1.60;98.60;;;;;;4946490;28;20043;-86
2023/03/09 00:41:32;;;;;;;18.07;8.17;;;1.50;98.60;;;;;;4953379;28;20047;-79
2023/03/09 00:44:01;;;;;;;17.07;9.20;;;1.50;98.60;;;;;;4949890;28;20075;-79
2023/03/09 00:46:30;;;;;;;20.83;9.87;;;1.50;98.70;;;;;;4941103;28;20454;-79
2023/03/09 00:48:59;;;;;;;16.97;7.73;;;1.50;98.70;;;;;;4949674;29;20100;-80
2023/03/09 00:51:26;;;;;;;14.23;6.87;;;1.50;98.70;;;;;;4964942;28;20480;-79
2023/03/09 00:53:55;;;;;;;22.00;10.03;;;1.40;98.70;;;;;;4927206;29;20550;-79
2023/03/09 00:56:29;;;;;;;16.03;7.73;;;1.50;98.80;;;;;;4949691;29;20151;-79
2023/03/09 00:59:00;;;;;;;19.40;9.70;;;1.50;98.80;;;;;;4948292;28;20135;-79
2023/03/09 01:01:27;;;;;;;18.17;9.33;;;1.50;98.80;;;;;;4921230;29;20114;-79
2023/03/09 01:03:54;;;;;;;18.63;9.00;;;1.50;98.80;;;;;;4939134;29;20456;-80
2023/03/09 01:06:24;;;;;;;18.90;9.27;;;1.50;98.80;;;;;;4958615;28;20067;-79
2023/03/09 01:08:52;;;;;;;16.97;8.10;;;1.50;98.80;;;;;;4942147;29;20099;-79
2023/03/09 01:11:19;;;;;;;15.50;7.77;;;1.50;98.70;;;;;;4968597;28;20417;-79
2023/03/09 01:13:46;;;;;;;18.30;8.80;;;1.50;98.70;;;;;;4938139;29;20047;-79
2023/03/09 01:16:14;;;;;;;18.33;8.87;;;1.50;98.70;;;;;;4934683;29;20043;-79
2023/03/09 01:18:41;;;;;;;15.67;7.80;;;1.50;98.70;;;;;;4937110;29;20435;-79
2023/03/09 01:21:09;;;;;;;16.60;7.80;;;1.50;98.70;;;;;;4953273;28;20052;-79
2023/03/09 01:23:38;;;;;;;20.95;9.38;;;1.50;98.70;;;;;;4955393;28;20075;-78
2023/03/09 01:26:07;;;;;;;17.57;8.23;;;1.50;98.70;;;;;;4949038;29;20043;-80
2023/03/09 01:28:36;;;;;;;18.87;8.83;;;1.50;98.70;;;;;;4965336;28;20036;-80
2023/03/09 01:31:09;;;;;;;18.10;8.97;;;1.50;98.70;;;;;;4936791;29;20048;-81
2023/03/09 01:33:40;;;;;;;15.37;7.63;;;1.60;98.70;;;;;;4958560;28;20268;-80
2023/03/09 01:36:11;;;;;;;16.70;7.53;;;1.60;98.70;;;;;;4951266;28;20408;-80
2023/03/09 01:38:39;;;;;;;16.30;8.43;;;1.60;98.70;;;;;;4952399;29;20052;-80
2023/03/09 01:41:05;;;;;;;15.57;7.20;;;1.60;98.70;;;;;;4946976;28;20098;-80
2023/03/09 01:43:46;;;;;;;12.97;6.03;;;1.60;98.70;;;;;;4940964;28;20406;-80
2023/03/09 01:46:23;;;;;;;13.83;7.27;;;1.70;98.70;;;;;;4950660;28;20039;-80
2023/03/09 01:49:05;;;;;;;15.37;7.23;;;1.70;98.60;;;;;;4956283;28;20503;-80
2023/03/09 01:51:35;;;;;;;;;;;1.70;98.60;;;;;;4948242;28;20659;-80
2023/03/09 01:54:07;;;;;;;15.02;7.55;;;1.60;98.60;;;;;;4939648;29;19927;-80
2023/03/09 01:56:36;;;;;;;18.73;8.57;;;1.70;98.60;;;;;;4955620;28;20051;-80
2023/03/09 01:59:07;;;;;;;14.75;6.38;;;1.60;98.60;;;;;;4936656;29;20051;-80
2023/03/09 02:01:36;;;;;;;14.10;6.30;;;1.70;98.60;;;;;;4947297;28;20146;-80
2023/03/09 02:04:10;;;;;;;14.40;7.57;;;1.70;98.60;;;;;;4952137;28;20395;-80
2023/03/09 02:06:42;;;;;;;14.67;6.97;;;1.70;98.60;;;;;;4935090;29;20043;-80
2023/03/09 02:09:20;;;;;;;14.27;6.47;;;1.70;98.60;;;;;;4957701;28;20052;-79
2023/03/09 02:11:47;;;;;;;18.10;8.88;;;1.70;98.60;;;;;;4940910;28;20126;-79
2023/03/09 02:14:18;;;;;;;13.13;6.73;;;1.70;98.60;;;;;;4935944;29;20484;-79
2023/03/09 02:16:48;;;;;;;18.20;9.03;;;1.70;98.60;;;;;;4951543;28;20052;-78
2023/03/09 02:19:30;;;;;;;14.90;7.90;;;1.70;98.60;;;;;;4935886;29;20058;-79
2023/03/09 02:21:57;;;;;;;;;;;1.70;98.60;;;;;;4947058;29;20066;-78
2023/03/09 02:24:36;;;;;;;16.07;7.60;;;1.70;98.60;;;;;;4918699;29;19927;-78
2023/03/09 02:27:23;;;;;;;17.97;8.80;;;1.70;98.60;;;;;;4950956;28;20043;-79
2023/03/09 02:29:51;;;;;;;16.02;7.38;;;1.60;98.60;;;;;;4942362;29;20055;-78
2023/03/09 02:32:20;;;;;;;15.53;6.90;;;1.60;98.60;;;;;;4944073;28;20040;-78
2023/03/09 02:34:47;;;;;;;16.40;8.20;;;1.70;98.70;;;;;;4935367;29;20100;-79
2023/03/09 02:37:32;;;;;;;15.85;7.07;;;1.60;98.60;;;;;;4955861;28;20479;-79
2023/03/09 02:40:28;;;;;;;16.50;8.03;;;1.60;98.60;;;;;;4950302;28;20122;-80
2023/03/09 02:43:00;;;;;;;15.30;7.45;;;1.60;98.60;;;;;;4937350;29;20052;-80
2023/03/09 02:45:29;;;;;;;14.23;6.97;;;1.60;98.60;;;;;;4936230;29;20071;-80
2023/03/09 02:47:57;;;;;;;19.17;9.57;;;1.60;98.70;;;;;;4965285;28;20067;-80
2023/03/09 02:50:30;;;;;;;15.52;7.50;;;1.60;98.70;;;;;;4934032;29;20050;-80
2023/03/09 02:53:00;;;;;;;17.00;8.13;;;1.60;98.70;;;;;;4929933;29;20051;-80
2023/03/09 02:55:29;;;;;;;16.40;7.15;;;1.60;98.70;;;;;;4937788;29;20122;-80
2023/03/09 02:58:01;;;;;;;15.10;7.43;;;1.60;99.00;;;;;;4938479;28;20505;-79
2023/03/09 03:00:28;;;;;;;13.87;6.40;;;1.60;98.70;;;;;;4954891;28;20051;-79
2023/03/09 03:02:56;;;;;;;15.87;7.17;;;1.70;98.70;;;;;;4934974;29;20047;-80
2023/03/09 03:05:28;;;;;;;16.60;7.05;;;1.70;98.70;;;;;;4963634;28;20044;-80
2023/03/09 03:07:55;;;;;;;13.48;6.63;;;1.70;98.70;;;;;;4935499;29;20063;-80
2023/03/09 03:10:24;;;;;;;19.23;9.00;;;1.70;98.70;;;;;;4934983;29;20043;-80
2023/03/09 03:12:51;;;;;;;18.30;8.10;;;1.70;98.90;;;;;;4952266;28;20061;-80
2023/03/09 03:15:18;;;;;;;15.83;7.60;;;1.70;98.70;;;;;;4938954;28;20071;-78
2023/03/09 03:17:45;;;;;;;15.87;8.03;;;1.70;98.70;;;;;;4948599;28;20050;-79
2023/03/09 03:20:14;;;;;;;19.10;9.47;;;1.70;98.70;;;;;;4949726;28;20447;-79
2023/03/09 03:22:46;;;;;;;17.70;8.73;;;1.70;98.70;;;;;;4940592;29;20147;-79
2023/03/09 03:25:16;;;;;;;13.03;6.43;;;1.70;98.70;;;;;;4949426;29;20043;-78
2023/03/09 03:27:46;;;;;;;13.47;5.80;;;1.70;98.70;;;;;;4935624;29;20098;-79
2023/03/09 03:30:15;;;;;;;11.73;5.77;;;1.70;98.70;;;;;;4931373;29;20044;-79
2023/03/09 03:32:45;;;;;;;17.77;6.67;;;1.70;98.70;;;;;;4950250;29;20048;-79
2023/03/09 03:35:16;;;;;;;13.27;6.30;;;1.70;98.70;;;;;;4937660;29;20138;-79
2023/03/09 03:37:44;;;;;;;13.43;6.10;;;1.70;98.70;;;;;;4950110;28;20075;-79
2023/03/09 03:40:13;;;;;;;11.17;5.53;;;1.70;98.70;;;;;;4949007;28;20173;-79
2023/03/09 03:42:44;;;;;;;13.47;6.33;;;1.80;98.70;;;;;;4934578;29;20055;-80
2023/03/09 03:45:12;;;;;;;14.18;7.00;;;1.80;98.70;;;;;;4938257;29;20138;-80
2023/03/09 03:47:40;;;;;;;15.70;7.30;;;1.70;98.60;;;;;;4927106;29;20098;-79
2023/03/09 03:50:08;;;;;;;16.53;7.30;;;1.70;98.60;;;;;;4948214;28;20051;-80
2023/03/09 03:52:43;;;;;;;13.90;6.87;;;1.70;98.60;;;;;;4934098;29;20039;-79
2023/03/09 03:55:11;;;;;;;11.40;4.97;;;1.70;98.60;;;;;;4947863;28;20459;-80
2023/03/09 03:57:38;;;;;;;12.32;5.47;;;1.70;98.60;;;;;;4940936;29;20389;-79
2023/03/09 04:00:10;;;;;;;13.40;6.03;;;1.70;98.60;;;;;;4953498;28;20054;-79
2023/03/09 04:02:39;;;;;;;11.77;5.13;;;1.80;98.70;;;;;;4961614;28;20055;-79
2023/03/09 04:05:14;;;;;;;10.70;5.20;;;1.80;98.70;;;;;;4911822;29;20520;-80
2023/03/09 04:07:46;;;;;;;13.40;6.22;;;1.80;98.60;;;;;;4926890;29;20059;-80
2023/03/09 04:10:14;;;;;;;11.47;5.70;;;1.80;98.60;;;;;;4934425;29;20047;-79
2023/03/09 04:12:43;;;;;;;11.77;4.70;;;1.80;98.60;;;;;;4937767;28;20108;-79
2023/03/09 04:15:11;;;;;;;12.13;5.20;;;1.80;98.60;;;;;;4918482;29;20099;-81
2023/03/09 04:17:38;;;;;;;11.67;5.63;;;1.80;98.60;;;;;;4923922;29;20600;-81
2023/03/09 04:20:07;;;;;;;12.20;5.70;;;1.80;98.60;;;;;;4924053;29;20055;-81
2023/03/09 04:22:34;;;;;;;12.57;5.15;;;1.80;98.60;;;;;;4934244;29;20082;-81
2023/03/09 04:25:02;;;;;;;12.30;5.90;;;1.80;98.60;;;;;;4969987;28;20097;-81
2023/03/09 04:27:29;;;;;;;13.33;6.47;;;1.80;98.60;;;;;;4967066;28;20133;-81
2023/03/09 04:30:05;;;;;;;14.98;6.70;;;1.80;98.60;;;;;;4946371;28;20093;-81
2023/03/09 04:32:34;;;;;;;15.47;7.07;;;1.80;98.60;;;;;;4971259;28;20078;-81
2023/03/09 04:35:07;;;;;;;14.60;7.07;;;1.80;98.60;;;;;;4925483;28;20039;-81
2023/03/09 04:37:36;;;;;;;14.83;6.53;;;1.80;98.60;;;;;;4971584;28;20066;-81
2023/03/09 04:40:05;;;;;;;16.33;7.40;;;1.80;98.60;;;;;;4940103;28;20125;-81
2023/03/09 04:42:33;;;;;;;14.73;7.05;;;1.80;98.60;;;;;;4946787;28;20402;-81
2023/03/09 04:45:00;;;;;;;16.77;7.97;;;1.80;98.60;;;;;;4940339;28;20058;-81
2023/03/09 04:47:28;;;;;;;14.75;6.10;;;1.80;98.60;;;;;;4959342;28;20101;-81
2023/03/09 04:49:55;;;;;;;12.73;5.90;;;1.80;98.60;;;;;;4991785;28;20042;-81
2023/03/09 04:52:26;;;;;;;13.55;6.07;;;1.80;98.60;;;;;;4969319;28;20049;-81
2023/03/09 04:54:55;;;;;;;14.47;6.30;;;1.80;98.60;;;;;;4978947;28;20537;-81
2023/03/09 04:57:26;;;;;;;13.77;6.45;;;1.80;98.60;;;;;;4956634;28;20069;-80
2023/03/09 04:59:56;;;;;;;13.80;6.20;;;1.80;98.60;;;;;;4967558;28;20050;-79
2023/03/09 05:02:28;;;;;;;11.88;5.65;;;1.80;98.60;;;;;;4939428;29;20054;-79
2023/03/09 05:04:55;;;;;;;13.47;6.27;;;1.80;98.60;;;;;;4970203;28;20085;-79
2023/03/09 05:07:24;;;;;;;14.50;6.20;;;1.80;98.60;;;;;;4946181;28;20039;-79
2023/03/09 05:09:51;;;;;;;10.77;4.63;;;1.80;98.60;;;;;;4968720;28;20042;-79
2023/03/09 05:12:18;;;;;;;11.97;5.80;;;1.80;98.60;;;;;;4947269;28;20050;-79
2023/03/09 05:14:46;;;;;;;11.20;5.53;;;1.80;98.60;;;;;;4976827;28;20457;-80
2023/03/09 05:17:16;;;;;;;12.33;5.33;;;1.90;98.60;;;;;;4952964;28;20518;-79
2023/03/09 05:19:43;;;;;;;11.18;4.72;;;1.90;98.70;;;;;;4947534;28;20510;-79
2023/03/09 05:22:10;;;;;;;12.43;5.97;;;1.90;98.60;;;;;;4968724;28;20121;-79
2023/03/09 05:24:38;;;;;;;13.03;4.60;;;1.90;98.60;;;;;;4960432;28;20515;-78
2023/03/09 05:27:05;;;;;;;11.97;5.17;;;1.90;98.60;;;;;;4962681;28;20046;-79
2023/03/09 05:29:33;;;;;;;11.95;4.97;;;1.90;98.60;;;;;;4949472;28;20055;-79
2023/03/09 05:32:01;;;;;;;12.40;4.93;;;1.90;98.60;;;;;;4952171;28;20410;-79
2023/03/09 05:34:30;;;;;;;9.80;4.43;;;1.90;98.50;;;;;;4994202;28;20410;-79
2023/03/09 05:36:58;;;;;;;11.32;5.00;;;1.90;98.50;;;;;;4944302;28;20053;-79
2023/03/09 05:39:27;;;;;;;11.27;5.55;;;1.90;98.50;;;;;;4946944;28;20078;-79
2023/03/09 05:41:54;;;;;;;11.43;5.13;;;1.90;98.50;;;;;;4961832;28;20491;-79
2023/03/09 05:44:32;;;;;;;12.83;5.27;;;1.90;98.50;;;;;;4965836;28;20051;-80
2023/03/09 05:46:59;;;;;;;12.75;5.85;;;1.90;98.50;;;;;;4958768;28;20035;-80
2023/03/09 05:49:30;;;;;;;12.63;4.27;;;1.90;98.50;;;;;;4943320;28;20046;-80
2023/03/09 05:52:01;;;;;;;12.13;5.10;;;1.90;98.50;;;;;;4966210;28;20101;-80
2023/03/09 05:54:30;;;;;;;;;;;1.90;98.50;;;;;;4969778;28;20050;-80
2023/03/09 05:57:02;;;;;;;12.27;4.50;;;1.90;98.50;;;;;;4988504;28;19921;-80
2023/03/09 05:59:29;;;;;;;8.43;3.97;;;1.90;98.50;;;;;;4950796;28;20438;-81
2023/03/09 06:01:56;;;;;;;13.70;6.03;;;1.90;98.50;;;;;;4963520;28;20138;-81
2023/03/09 06:04:29;;;;;;;9.75;4.95;;;1.90;98.50;;;;;;4943406;28;20055;-80
2023/03/09 06:07:01;;;;;;;12.30;5.38;;;1.90;98.50;;;;;;4972651;28;20129;-80
2023/03/09 06:09:35;;;;;;;13.10;5.70;;;1.90;98.50;;;;;;4958177;28;20407;-80
2023/03/09 06:12:05;;;;;;;11.73;5.53;;;1.90;98.50;;;;;;4971929;28;20046;-80
2023/03/09 06:14:33;;;;;;;12.20;5.43;;;1.90;98.50;;;;;;4964366;28;20069;-80
2023/03/09 06:17:01;;;;;;;11.20;5.57;;;1.90;98.50;;;;;;4967609;28;20042;-80
2023/03/09 06:19:28;;;;;;;15.10;7.40;;;1.90;98.50;;;;;;4942456;28;20134;-80
2023/03/09 06:21:55;;;;;;;14.60;6.77;;;1.90;98.50;;;;;;4942208;28;20061;-80
2023/03/09 06:24:24;;;;;;;14.27;6.50;;;1.90;98.50;;;;;;4971028;28;20069;-80
2023/03/09 06:26:51;;;;;;;14.27;6.47;;;1.90;98.50;;;;;;4942595;28;20043;-80
2023/03/09 06:29:30;;;;;;;12.37;5.30;;;1.90;98.50;;;;;;4956265;28;20042;-80
2023/03/09 06:32:00;;;;;;;13.83;6.00;;;1.90;98.50;;;;;;4943828;28;20116;-81
2023/03/09 06:34:30;;;;;;;10.13;4.68;;;2.00;98.50;;;;;;4958500;28;20415;-80
2023/03/09 06:37:02;;;;;;;13.35;5.97;;;2.00;98.50;;;;;;4971632;28;20070;-80
2023/03/09 06:39:29;;;;;;;11.27;5.43;;;2.00;98.50;;;;;;4968787;28;20129;-79
2023/03/09 06:42:00;;;;;;;12.55;5.95;;;2.00;98.50;;;;;;4960838;28;20581;-78
2023/03/09 06:44:44;;;;;;;12.55;5.32;;;2.10;98.50;;;;;;4954866;28;20137;-79
2023/03/09 06:47:12;;;;;;;11.53;5.23;;;2.10;98.50;;;;;;4938907;29;20043;-79
2023/03/09 06:49:43;;;;;;;14.93;6.35;;;2.10;98.40;;;;;;4955794;28;20079;-93
2023/03/09 06:52:14;;;;;;;11.95;5.35;;;2.10;98.40;;;;;;4939805;29;20052;-93
2023/03/09 06:54:42;;;;;;;13.13;6.10;;;2.10;98.30;;;;;;4960900;28;20103;-93
2023/03/09 06:57:16;;;;;;;12.63;5.57;;;2.10;98.40;;;;;;4930940;29;20079;-93
2023/03/09 06:59:43;;;;;;;11.63;5.03;;;2.10;98.30;;;;;;4936605;29;20111;-93
2023/03/09 07:02:12;;;;;;;12.70;5.30;;;2.10;98.30;;;;;;4952000;28;20459;-92
2023/03/09 07:04:40;;;;;;;13.53;5.57;;;2.10;98.30;;;;;;4944154;29;20074;-88
2023/03/09 07:07:08;;;;;;;13.70;6.40;;;2.10;98.30;;;;;;4946440;29;20560;-88
2023/03/09 07:09:35;;;;;;;13.63;5.53;;;2.10;98.30;;;;;;4926677;29;20098;-88
2023/03/09 07:12:03;;;;;;;12.43;5.07;;;2.10;98.30;;;;;;4935157;29;20052;-88
2023/03/09 07:14:30;;;;;;;13.20;6.53;;;2.20;98.30;;;;;;4942108;29;20062;-87
2023/03/09 07:16:57;;;;;;;10.10;4.53;;;2.20;98.30;;;;;;4954232;29;20134;-87
2023/03/09 07:19:25;;;;;;;10.97;5.33;;;2.20;98.30;;;;;;4961194;28;20050;-87
2023/03/09 07:21:53;;;;;;;14.35;6.20;;;2.20;98.30;;;;;;4955375;28;20549;-88
2023/03/09 07:24:22;;;;;;;11.20;5.00;;;2.30;98.30;;;;;;4964825;28;20053;-87
2023/03/09 07:26:49;;;;;;;10.05;3.97;;;2.30;98.30;;;;;;4962664;28;20449;-87
2023/03/09 07:29:16;;;;;;;9.53;4.57;;;2.30;98.30;;;;;;4923356;29;20039;-88
2023/03/09 07:31:43;;;;;;;9.33;4.47;;;2.30;98.30;;;;;;4977411;28;20549;-87
2023/03/09 07:34:10;;;;;;;11.02;4.20;;;2.30;98.30;;;;;;4943413;28;20051;-87
2023/03/09 07:36:37;;;;;;;10.85;4.68;;;2.40;98.30;;;;;;4973842;28;20133;-86
2023/03/09 07:39:05;;;;;;;10.88;5.18;;;2.40;98.30;;;;;;4960896;28;20069;-87
2023/03/09 07:41:32;;;;;;;9.52;4.40;;;2.40;98.20;;;;;;4941860;28;20078;-87
2023/03/09 07:43:59;;;;;;;10.53;4.73;;;2.50;98.20;;;;;;4957639;28;20058;-87
2023/03/09 07:46:26;;;;;;;8.23;3.92;;;2.50;98.20;;;;;;4954411;28;20038;-87
2023/03/09 07:48:54;;;;;;;10.77;4.20;;;2.50;98.10;;;;;;4956938;28;20069;-88
2023/03/09 07:51:21;;;;;;;10.57;4.57;;;2.50;98.10;;;;;;4952695;28;20038;-88
2023/03/09 07:53:49;;;;;;;8.97;4.03;;;2.60;98.10;;;;;;4947428;28;20045;-87
2023/03/09 07:56:16;;;;;;;9.70;4.20;;;2.60;98.10;;;;;;4951891;28;20050;-88
2023/03/09 07:58:45;;;;;;;11.27;4.43;;;2.60;98.00;;;;;;4953198;28;20447;-87
2023/03/09 08:01:17;;;;;;;10.37;4.77;;;2.60;98.00;;;;;;4942143;28;20054;-87
2023/03/09 08:03:48;;;;;;;9.50;4.05;;;2.70;98.10;;;;;;4974900;28;20054;-88
2023/03/09 08:06:15;;;;;;;10.00;3.93;;;2.70;98.00;;;;;;4953191;28;20070;-88
2023/03/09 08:08:43;;;;;;;9.87;4.30;;;2.70;98.00;;;;;;4957917;28;20034;-88
2023/03/09 08:11:10;;;;;;;10.53;4.47;;;2.80;98.00;;;;;;4938059;28;20050;-88
2023/03/09 08:13:37;;;;;;;11.37;5.00;;;2.80;97.90;;;;;;4941671;28;20050;-88
2023/03/09 08:16:08;;;;;;;10.70;5.25;;;2.80;97.90;;;;;;4957360;28;20133;-87
2023/03/09 08:18:35;;;;;;;11.63;5.68;;;2.80;97.80;;;;;;4948706;28;20060;-87
2023/03/09 08:21:07;;;;;;;12.70;6.13;;;2.80;97.80;;;;;;4950423;28;20061;-87
2023/03/09 08:23:37;;;;;;;14.48;6.15;;;2.80;97.90;;;;;;4951055;28;20558;-89
2023/03/09 08:26:04;;;;;;;14.00;6.85;;;2.80;97.90;;;;;;4977741;28;20070;-89
2023/03/09 08:28:31;;;;;;;13.05;6.20;;;2.80;97.80;;;;;;4962978;28;20360;-87
2023/03/09 08:30:59;;;;;;;11.75;5.57;;;2.80;97.80;;;;;;4961087;28;20530;-88
2023/03/09 08:33:27;;;;;;;13.23;5.68;;;2.90;97.80;;;;;;4943551;28;20071;-87
2023/03/09 08:35:55;;;;;;;14.05;6.78;;;2.90;97.80;;;;;;4966946;28;20165;-87
2023/03/09 08:38:22;;;;;;;13.38;5.97;;;3.00;97.70;;;;;;4978036;28;20042;-86
2023/03/09 08:40:49;;;;;;;14.88;6.30;;;3.10;97.70;;;;;;4945021;28;20459;-87
2023/03/09 08:43:16;;;;;;;11.98;5.38;;;3.10;97.60;;;;;;4975314;28;20153;-86
2023/03/09 08:45:43;;;;;;;12.15;4.97;;;3.20;97.60;;;;;;4954256;28;20510;-87
2023/03/09 08:48:10;;;;;;;12.60;5.90;;;3.20;97.60;;;;;;4980353;28;20603;-90
2023/03/09 08:50:37;;;;;;;14.45;7.22;;;3.30;97.60;;;;;;4964718;28;20050;-88
2023/03/09 08:53:04;;;;;;;13.98;5.43;;;3.30;97.50;;;;;;4969392;28;20074;-87
2023/03/09 08:55:32;;;;;;;11.63;5.93;;;3.30;97.70;;;;;;4962120;28;20104;-88
2023/03/09 08:57:58;;;;;;;13.65;6.20;;;3.30;97.50;;;;;;4949090;28;20085;-88
2023/03/09 09:00:26;;;;;;;10.45;5.10;;;3.40;97.50;;;;;;4960897;28;20051;-88
2023/03/09 09:02:54;;;;;;;13.85;5.15;;;3.40;97.50;;;;;;4961096;28;20460;-88
2023/03/09 09:05:21;;;;;;;14.25;5.93;;;3.50;97.50;;;;;;4958636;28;20057;-88
2023/03/09 09:07:48;;;;;;;10.80;5.47;;;3.60;97.40;;;;;;4944732;28;20047;-88
2023/03/09 09:10:16;;;;;;;11.07;5.22;;;3.60;97.30;;;;;;4960666;28;20483;-89
2023/03/09 09:13:02;;;;;;;11.75;5.38;;;3.50;97.30;;;;;;4928660;29;20456;-89
2023/03/09 09:15:29;;;;;;;10.98;5.43;;;3.50;97.30;;;;;;4944883;28;20050;-87
2023/03/09 09:17:56;;;;;;;11.73;4.65;;;3.50;97.40;;;;;;4963831;28;20495;-88
2023/03/09 09:20:23;;;;;;;10.73;5.32;;;3.50;97.40;;;;;;4960699;28;20179;-89
2023/03/09 09:22:50;;;;;;;12.20;4.97;;;3.60;97.40;;;;;;4960784;28;20045;-86
2023/03/09 09:25:17;;;;;;;11.60;5.03;;;3.60;97.30;;;;;;4960520;28;20043;-88
2023/03/09 09:27:45;;;;;;;10.18;4.55;;;3.70;97.30;;;;;;4944509;28;20113;-88
2023/03/09 09:30:14;;;;;;;12.63;5.80;;;3.70;97.20;;;;;;4976736;28;20410;-92
2023/03/09 09:32:41;;;;;;;13.02;5.60;;;3.70;97.20;;;;;;4944616;28;20047;-88
2023/03/09 09:35:08;;;;;;;13.57;6.45;;;3.70;97.20;;;;;;4944440;28;20046;-88
2023/03/09 09:37:35;;;;;;;13.80;5.78;;;3.70;97.20;;;;;;4960270;28;20055;-88
2023/03/09 09:40:04;;;;;;;12.20;5.50;;;3.70;97.20;;;;;;4944532;28;20082;-89
2023/03/09 09:42:36;;;;;;;12.20;5.80;;;3.70;97.20;;;;;;4944986;28;20046;-87
2023/03/09 09:45:05;;;;;;;;;;;3.70;97.20;;;;;;4960583;28;20057;-87
2023/03/09 09:47:34;;;;;;;10.40;5.38;;;3.80;97.20;;;;;;4981748;28;19944;-88
2023/03/09 09:50:02;;;;;;;12.35;5.10;;;3.70;97.20;;;;;;4959710;28;20101;-87
2023/03/09 09:52:39;;;;;;;11.55;5.50;;;3.80;97.20;;;;;;4959881;28;20039;-88
2023/03/09 09:55:29;;;;;;;13.23;5.43;;;3.80;97.10;;;;;;4970233;28;20046;-89
2023/03/09 09:58:30;;;;;;;10.15;4.45;;;3.80;97.20;;;;;;4951145;28;20047;-88
2023/03/09 10:01:03;;;;;;;11.35;5.05;;;3.90;97.10;;;;;;4962567;28;20085;-90
2023/03/09 10:03:38;;;;;;;9.45;4.57;;;4.00;97.10;;;;;;4960293;28;20047;-88
2023/03/09 10:06:20;;;;;;;10.77;5.40;;;4.00;97.00;;;;;;4963234;28;20043;-88
2023/03/09 10:08:57;;;;;;;10.95;4.13;;;4.10;97.00;;;;;;4972529;28;20491;-89
2023/03/09 10:11:24;;;;;;;10.27;4.53;;;4.10;97.00;;;;;;4976405;28;20051;-90
2023/03/09 10:14:21;;;;;;;9.50;4.10;;;4.10;97.00;;;;;;4944291;28;20070;-89
2023/03/09 10:16:58;;;;;;;9.02;4.25;;;4.10;96.90;;;;;;4975961;28;20090;-92
2023/03/09 10:19:37;;;;;;;11.27;5.07;;;4.10;96.90;;;;;;4975949;28;20114;-90
2023/03/09 10:22:13;;;;;;;11.93;5.32;;;4.10;96.90;;;;;;4943718;28;20062;-91
2023/03/09 10:24:41;;;;;;;9.95;4.20;;;4.20;97.00;;;;;;4943774;28;20105;-89
2023/03/09 10:27:26;;;;;;;10.63;4.70;;;4.20;96.90;;;;;;4967134;28;20129;-89
2023/03/09 10:30:02;;;;;;;10.40;4.20;;;4.30;96.90;;;;;;4968854;28;20043;-89
2023/03/09 10:33:05;;;;;;;8.85;3.92;;;4.40;96.90;;;;;;4974206;28;20115;-90
2023/03/09 10:35:58;;;;;;;12.43;5.07;;;4.40;96.70;;;;;;4971541;28;20089;-89
2023/03/09 10:38:25;;;;;;;9.60;3.70;;;4.50;96.80;;;;;;4961905;28;20062;-88
2023/03/09 10:40:55;;;;;;;8.45;3.95;;;4.50;96.70;;;;;;4944066;28;20384;-88
2023/03/09 10:43:25;;;;;;;9.43;5.18;;;4.50;96.70;;;;;;4960384;28;20053;-88
2023/03/09 10:45:53;;;;;;;10.15;5.00;;;4.50;96.70;;;;;;4978680;28;20097;-90
2023/03/09 10:48:23;;;;;;;11.38;5.35;;;4.50;96.70;;;;;;4978465;28;20052;-89
2023/03/09 10:50:59;;;;;;;10.10;4.72;;;4.50;96.70;;;;;;4978346;28;20487;-89
2023/03/09 10:53:44;;;;;;;11.60;5.20;;;4.50;96.70;;;;;;4980059;28;20125;-89
2023/03/09 10:56:24;;;;;;;10.52;4.43;;;4.60;96.70;;;;;;4974700;28;20050;-89
2023/03/09 10:59:03;;;;;;;9.90;3.97;;;4.60;96.70;;;;;;4943273;28;20049;-89
2023/03/09 11:01:30;;;;;;;11.80;4.57;;;4.60;96.60;;;;;;4973988;28;20510;-89
2023/03/09 11:03:57;;;;;;;12.65;4.90;;;4.50;96.60;;;;;;4959028;28;20047;-89
2023/03/09 11:06:33;;;;;;;9.13;4.05;;;4.50;96.60;;;;;;4942824;28;20089;-89
2023/03/09 11:09:30;;;;;;;12.02;4.90;;;4.60;96.70;;;;;;4959057;28;20047;-89
2023/03/09 11:12:36;;;;;;;13.38;6.15;;;4.60;96.60;;;;;;4952771;28;20046;-89
2023/03/09 11:15:15;;;;;;;10.63;5.28;;;4.60;96.50;;;;;;4947050;29;20106;-88
2023/03/09 11:17:44;;;;;;;13.27;5.32;;;4.70;96.60;;;;;;4939800;28;20047;-88
2023/03/09 11:20:36;;;;;;;12.30;4.90;;;4.60;96.50;;;;;;4959512;28;20046;-89
2023/03/09 11:23:36;;;;;;;10.85;5.38;;;4.70;96.50;;;;;;4974434;28;20101;-89
2023/03/09 11:26:47;;;;;;;11.68;5.03;;;4.70;96.50;;;;;;4980743;28;20094;-90
2023/03/09 11:29:51;;;;;;;11.25;5.30;;;4.60;96.50;;;;;;4947020;28;20141;-88
2023/03/09 11:32:18;;;;;;;11.20;4.70;;;4.70;96.60;;;;;;4974344;28;20043;-88
2023/03/09 11:34:46;;;;;;;10.23;3.95;;;4.70;96.50;;;;;;4958486;28;20055;-89
2023/03/09 11:37:36;;;;;;;10.65;4.20;;;4.80;96.50;;;;;;4965129;28;20053;-91
2023/03/09 11:40:27;;;;;;;16.05;7.22;;;4.80;96.40;;;;;;4961511;28;20582;-91
2023/03/09 11:43:11;;;;;;;13.73;6.38;;;4.80;96.20;;;;;;4968063;28;20050;-90
2023/03/09 11:45:41;;;;;;;12.32;5.40;;;4.60;96.20;;;;;;4977512;28;20056;-88
2023/03/09 11:48:32;;;;;;;11.70;5.78;;;4.60;96.40;;;;;;4964868;28;20070;-89
2023/03/09 11:51:29;;;;;;;12.27;5.88;;;4.50;96.50;;;;;;4955086;28;20034;-89
2023/03/09 11:54:20;;;;;;;8.98;4.10;;;4.60;96.50;;;;;;4966974;28;20522;-85
2023/03/09 11:56:48;;;;;;;10.40;4.75;;;4.50;96.60;;;;;;4993183;28;20042;-85
2023/03/09 11:59:32;;;;;;;10.20;4.20;;;4.50;96.60;;;;;;4976631;28;20384;-86
2023/03/09 12:02:10;;;;;;;10.23;4.90;;;4.60;96.60;;;;;;4961978;28;20057;-86
2023/03/09 12:04:38;;;;;;;10.38;4.30;;;4.50;96.60;;;;;;4981401;28;20050;-85
2023/03/09 12:07:27;;;;;;;11.93;6.38;;;4.50;96.60;;;;;;4962608;28;20109;-88
2023/03/09 12:10:16;;;;;;;11.45;4.25;;;4.60;96.60;;;;;;4983233;28;20077;-85
2023/03/09 12:12:55;;;;;;;12.00;5.18;;;4.60;96.70;;;;;;4970843;28;20142;-84
2023/03/09 12:15:54;;;;;;;10.85;4.57;;;4.50;96.70;;;;;;4957191;28;20113;-88
2023/03/09 12:18:37;;;;;;;9.90;4.32;;;4.60;96.70;;;;;;4963032;28;20137;-88
2023/03/09 12:22:09;;;;;;;9.73;4.43;;;4.60;96.80;;;;;;4942878;29;20142;-86
2023/03/09 12:24:42;;;;;;;9.50;4.53;;;4.60;96.70;;;;;;4950999;29;20523;-87
2023/03/09 12:27:31;;;;;;;10.23;5.00;;;4.50;96.70;;;;;;4951299;29;20050;-92
2023/03/09 12:34:39;;;;;;;10.70;4.63;;;4.50;96.70;;;;;;4859901;29;20099;-89
2023/03/09 12:37:29;;;;;;;12.70;5.55;;;4.40;96.70;;;;;;4856048;29;20044;-88
2023/03/09 12:40:26;;;;;;;11.95;5.35;;;4.40;96.70;;;;;;4934014;29;20103;-88
2023/03/09 12:42:56;;;;;;;12.63;5.25;;;4.30;96.80;;;;;;4925275;29;21018;-89
2023/03/09 12:45:49;;;;;;;10.98;5.05;;;4.30;96.90;;;;;;4934913;29;20047;-89
2023/03/09 12:48:25;;;;;;;12.80;4.95;;;4.30;96.90;;;;;;4922445;29;20071;-96
2023/03/09 12:51:27;;;;;;;13.10;5.43;;;4.30;96.90;;;;;;4936398;29;20047;-95
2023/03/09 12:54:41;;;;;;;;;;;;;;;;;;;;;
2023/03/09 12:58:09;;;;;;;10.93;4.60;;;4.30;96.90;;;;;;4951807;29;20063;-91
2023/03/09 13:01:47;;;;;;;11.65;4.78;;;4.30;96.90;;;;;;4938581;29;20055;-92
2023/03/09 13:04:00;;;;;;;;;;;4.30;96.90;;;;;;4949095;29;20051;-91
2023/03/09 13:07:15;;;;;;;12.65;4.90;;;4.10;97.00;;;;;;4964564;28;20073;-94
2023/03/09 13:10:00;;;;;;;13.45;4.80;;;4.10;97.00;;;;;;4925741;29;20056;-93
2023/03/09 13:13:31;;;;;;;13.05;5.15;;;4.10;97.00;;;;;;4930763;29;20047;-91
2023/03/09 13:16:34;;;;;;;13.45;5.05;;;4.10;97.00;;;;;;4913689;29;20131;-88
2023/03/09 13:19:20;;;;;;;12.30;5.55;;;4.10;97.00;;;;;;4945303;29;20048;-89
2023/03/09 13:22:13;;;;;;;14.20;5.25;;;4.20;97.00;;;;;;4935047;29;20058;-88
2023/03/09 13:24:50;;;;;;;12.07;5.85;;;4.20;97.00;;;;;;4918217;29;20132;-91
2023/03/09 13:28:01;;;;;;;11.80;4.38;;;4.20;97.00;;;;;;4940170;28;20048;-94